createdAt,value
2022-09-09T00:03:33.041Z,21.59
2022-09-09T00:08:31.140Z,21.82
2022-09-09T00:13:31.219Z,22.02
2022-09-09T00:18:30.537Z,21.74
2022-09-09T00:23:28.802Z,21.34
2022-09-09T00:28:28.173Z,21.38
2022-09-09T00:33:27.279Z,21.29
2022-09-09T00:38:27.620Z,21.25
2022-09-09T00:43:26.934Z,21.12
2022-09-09T00:48:25.241Z,20.62
2022-09-09T00:53:25.584Z,21.12
2022-09-09T00:58:23.891Z,21.04
2022-09-09T01:03:23.199Z,21.22
2022-09-09T01:08:22.537Z,21.13
2022-09-09T01:13:22.838Z,20.52
2022-09-09T01:18:21.156Z,20.38
2022-09-09T01:23:20.510Z,20.16
2022-09-09T01:28:20.745Z,20.47
2022-09-09T01:33:19.857Z,20.18
2022-09-09T01:38:19.154Z,20.21
2022-09-09T01:43:19.468Z,20.01
2022-09-09T01:48:16.804Z,19.71
2022-09-09T01:53:16.110Z,20.03
2022-09-09T01:58:15.428Z,19.96
2022-09-09T02:03:15.741Z,19.78
2022-09-09T02:08:14.049Z,19.98
2022-09-09T02:13:15.398Z,20.03
2022-09-09T02:18:14.713Z,19.92
2022-09-09T02:23:12.090Z,19.43
2022-09-09T02:28:11.221Z,19.43
2022-09-09T02:33:10.517Z,19.66
2022-09-09T02:38:10.825Z,19.33
2022-09-09T02:43:09.123Z,19.18
2022-09-09T02:48:10.433Z,19.51
2022-09-09T02:53:08.743Z,19.55
2022-09-09T02:58:09.055Z,19.44
2022-09-09T03:03:06.346Z,19.28
2022-09-09T03:08:07.689Z,19.19
2022-09-09T03:13:05.029Z,19.37
2022-09-09T03:18:06.200Z,19.39
2022-09-09T03:23:03.326Z,19.41
2022-09-09T03:28:02.453Z,19.19
2022-09-09T03:33:02.813Z,19.08
2022-09-09T03:38:01.924Z,19.25
2022-09-09T03:43:00.223Z,19.28
2022-09-09T03:48:01.562Z,19.40
2022-09-09T03:52:59.997Z,19.16
2022-09-09T03:57:58.082Z,19.48
2022-09-09T04:02:57.378Z,19.04
2022-09-09T04:07:56.652Z,19.10
2022-09-09T04:12:55.952Z,19.18
2022-09-09T04:17:55.235Z,19.51
2022-09-09T04:22:56.621Z,19.71
2022-09-09T04:27:54.691Z,19.61
2022-09-09T04:32:53.224Z,19.51
2022-09-09T04:37:52.143Z,19.36
2022-09-09T04:42:51.440Z,19.36
2022-09-09T04:47:51.769Z,19.54
2022-09-09T04:52:51.065Z,19.55
2022-09-09T04:57:50.357Z,19.28
2022-09-09T05:02:50.662Z,19.33
2022-09-09T05:07:48.968Z,19.55
2022-09-09T05:12:48.109Z,19.58
2022-09-09T05:17:48.439Z,19.61
2022-09-09T05:22:45.723Z,19.74
2022-09-09T05:27:46.091Z,19.78
2022-09-09T05:32:45.228Z,19.71
2022-09-09T05:37:43.544Z,20.10
2022-09-09T05:42:43.909Z,19.94
2022-09-09T05:47:43.028Z,20.06
2022-09-09T05:52:42.357Z,19.65
2022-09-09T05:57:40.722Z,19.73
2022-09-09T06:02:39.960Z,19.83
2022-09-09T06:07:39.143Z,19.65
2022-09-09T06:12:40.461Z,19.95
2022-09-09T06:17:37.757Z,19.88
2022-09-09T06:22:38.085Z,19.83
2022-09-09T06:27:36.401Z,19.59
2022-09-09T06:32:35.709Z,19.50
2022-09-09T06:37:34.057Z,19.56
2022-09-09T06:42:34.158Z,19.54
2022-09-09T06:47:33.476Z,19.59
2022-09-09T06:52:32.791Z,19.66
2022-09-09T06:57:37.379Z,19.98
2022-09-09T07:02:32.452Z,19.96
2022-09-09T07:07:30.733Z,19.86
2022-09-09T07:12:30.020Z,20.11
2022-09-09T07:17:30.357Z,20.31
2022-09-09T07:22:28.641Z,20.35
2022-09-09T07:27:27.956Z,20.36
2022-09-09T07:32:27.243Z,20.32
2022-09-09T07:37:27.543Z,20.38
2022-09-09T07:42:26.813Z,20.29
2022-09-09T07:47:25.120Z,20.28
2022-09-09T07:52:24.428Z,20.23
2022-09-09T07:57:23.746Z,20.42
2022-09-09T08:02:23.085Z,20.66
2022-09-09T08:07:24.272Z,20.54
2022-09-09T08:12:23.372Z,20.57
2022-09-09T08:17:21.705Z,19.76
2022-09-09T08:22:19.799Z,20.06
2022-09-09T08:27:20.197Z,19.78
2022-09-09T08:32:18.298Z,19.96
2022-09-09T08:37:17.594Z,19.96
2022-09-09T08:42:16.990Z,19.51
2022-09-09T08:47:17.090Z,19.56
2022-09-09T08:52:16.392Z,19.62
2022-09-09T08:57:15.686Z,19.91
2022-09-09T09:02:16.627Z,19.86
2022-09-09T09:07:14.215Z,19.59
2022-09-09T09:12:12.518Z,19.51
2022-09-09T09:17:13.841Z,19.29
2022-09-09T09:22:13.138Z,19.48
2022-09-09T09:27:10.430Z,19.46
2022-09-09T09:32:09.727Z,19.33
2022-09-09T09:37:09.058Z,19.07
2022-09-09T09:42:08.360Z,19.08
2022-09-09T09:47:07.719Z,19.25
2022-09-09T09:52:06.965Z,19.31
2022-09-09T09:57:07.090Z,19.26
2022-09-09T10:02:06.249Z,19.32
2022-09-09T10:07:04.593Z,19.63
2022-09-09T10:12:03.868Z,20.02
2022-09-09T10:17:03.156Z,20.32
2022-09-09T10:22:02.545Z,20.47
2022-09-09T10:27:02.669Z,20.36
2022-09-09T10:32:01.957Z,20.21
2022-09-09T10:37:00.290Z,20.33
2022-09-09T10:42:00.393Z,20.74
2022-09-09T10:47:01.773Z,20.80
2022-09-09T10:51:58.021Z,20.89
2022-09-09T10:56:57.324Z,21.09
2022-09-09T11:01:56.585Z,21.67
2022-09-09T11:06:57.857Z,21.46
2022-09-09T11:11:55.139Z,21.80
2022-09-09T11:16:55.526Z,22.25
2022-09-09T11:21:53.652Z,22.21
2022-09-09T11:26:53.972Z,22.70
2022-09-09T11:31:52.254Z,22.97
2022-09-09T11:36:51.534Z,22.95
2022-09-09T11:41:51.841Z,22.95
2022-09-09T11:46:50.395Z,21.94
2022-09-09T11:51:48.290Z,21.59
2022-09-09T11:56:48.616Z,20.73
2022-09-09T12:01:47.914Z,21.59
2022-09-09T12:06:47.250Z,22.46
2022-09-09T12:11:46.572Z,23.32
2022-09-09T12:16:45.920Z,24.85
2022-09-09T12:21:46.055Z,26.47
2022-09-09T12:26:44.363Z,26.65
2022-09-09T12:31:45.869Z,26.76
2022-09-09T12:36:42.873Z,26.75
2022-09-09T12:41:42.147Z,26.85
2022-09-09T12:46:43.463Z,26.99
2022-09-09T12:51:40.727Z,27.50
2022-09-09T12:56:42.972Z,26.13
2022-09-09T13:01:39.434Z,24.71
2022-09-09T13:06:39.589Z,24.76
2022-09-09T13:11:38.869Z,25.14
2022-09-09T13:16:42.599Z,26.09
2022-09-09T13:21:36.348Z,26.65
2022-09-09T13:26:37.666Z,25.64
2022-09-09T13:31:35.007Z,25.05
2022-09-09T13:36:34.091Z,25.02
2022-09-09T13:41:33.434Z,25.62
2022-09-09T13:46:31.715Z,25.38
2022-09-09T13:51:32.008Z,26.18
2022-09-09T13:56:31.318Z,26.12
2022-09-09T14:01:32.745Z,25.32
2022-09-09T14:06:29.926Z,25.20
2022-09-09T14:11:29.028Z,25.90
2022-09-09T14:16:28.344Z,24.58
2022-09-09T14:21:28.636Z,23.85
2022-09-09T14:26:26.962Z,24.67
2022-09-09T14:31:27.320Z,24.34
2022-09-09T14:36:25.418Z,24.88
2022-09-09T14:41:24.742Z,24.73
2022-09-09T14:46:24.079Z,24.02
2022-09-09T14:51:23.381Z,23.91
2022-09-09T14:56:22.703Z,23.32
2022-09-09T15:01:25.046Z,23.61
2022-09-09T15:06:22.154Z,22.85
2022-09-09T15:11:20.464Z,22.65
2022-09-09T15:16:23.629Z,22.61
2022-09-09T15:21:20.066Z,22.98
2022-09-09T15:26:18.213Z,23.33
2022-09-09T15:31:19.347Z,23.27
2022-09-09T15:36:19.661Z,23.97
2022-09-09T15:41:17.972Z,23.28
2022-09-09T15:46:15.422Z,23.17
2022-09-09T15:51:38.023Z,23.98
2022-09-09T15:56:14.666Z,24.31
2022-09-09T16:01:12.816Z,24.52
2022-09-09T16:06:11.959Z,24.53
2022-09-09T16:11:12.377Z,24.61
2022-09-09T16:16:10.496Z,24.52
2022-09-09T16:21:10.665Z,24.50
2022-09-09T16:26:08.800Z,24.30
2022-09-09T16:31:09.046Z,24.30
2022-09-09T16:36:07.270Z,24.32
2022-09-09T16:41:05.416Z,24.35
2022-09-09T16:46:04.761Z,24.40
2022-09-09T16:51:05.002Z,24.53
2022-09-09T16:56:04.127Z,24.05
2022-09-09T17:01:04.473Z,22.97
2022-09-09T17:06:02.835Z,22.95
2022-09-09T17:11:01.926Z,22.20
2022-09-09T17:16:03.143Z,22.05
2022-09-09T17:21:01.586Z,21.77
2022-09-09T17:25:59.894Z,21.28
2022-09-09T17:30:59.243Z,21.43
2022-09-09T17:35:59.378Z,21.50
2022-09-09T17:40:58.638Z,21.42
2022-09-09T17:45:56.961Z,21.34
2022-09-09T17:50:57.206Z,22.33
2022-09-09T17:55:55.502Z,21.94
2022-09-09T18:00:54.870Z,22.17
2022-09-09T18:05:53.984Z,22.17
2022-09-09T18:10:55.279Z,23.17
2022-09-09T18:15:52.636Z,23.07
2022-09-09T18:20:51.809Z,23.10
2022-09-09T18:25:51.236Z,23.25
2022-09-09T18:30:51.402Z,23.02
2022-09-09T18:35:49.568Z,23.27
2022-09-09T18:40:50.773Z,22.91
2022-09-09T18:45:48.072Z,23.39
2022-09-09T18:50:48.415Z,23.32
2022-09-09T18:55:47.797Z,22.80
2022-09-09T19:00:46.032Z,21.92
2022-09-09T19:05:45.993Z,21.49
2022-09-09T19:10:44.288Z,21.62
2022-09-09T19:15:43.843Z,21.47
2022-09-09T19:20:42.939Z,20.99
2022-09-09T19:25:42.193Z,21.58
2022-09-09T19:30:42.475Z,21.38
2022-09-09T19:35:40.656Z,21.25
2022-09-09T19:40:41.025Z,21.22
2022-09-09T19:45:38.980Z,21.32
2022-09-09T19:50:38.274Z,21.27
2022-09-09T19:55:38.575Z,21.31
2022-09-09T20:00:39.530Z,21.16
2022-09-09T20:05:36.061Z,20.58
2022-09-09T20:10:35.369Z,20.85
2022-09-09T20:15:34.835Z,20.66
2022-09-09T20:20:33.996Z,19.87
2022-09-09T20:25:33.304Z,20.70
2022-09-09T20:30:32.632Z,20.82
2022-09-09T20:35:31.905Z,21.22
2022-09-09T20:40:33.505Z,20.80
2022-09-09T20:45:31.495Z,21.12
2022-09-09T20:50:29.579Z,20.41
2022-09-09T20:55:29.921Z,21.22
2022-09-09T21:00:28.208Z,20.69
2022-09-09T21:05:29.489Z,20.79
2022-09-09T21:10:26.794Z,20.36
2022-09-09T21:15:27.138Z,20.61
2022-09-09T21:20:26.439Z,19.92
2022-09-09T21:25:25.779Z,20.11
2022-09-09T21:30:32.907Z,19.99
2022-09-09T21:35:24.414Z,19.92
2022-09-09T21:40:23.334Z,19.78
2022-09-09T21:45:21.585Z,19.78
2022-09-09T21:50:20.849Z,19.77
2022-09-09T21:55:21.115Z,19.68
2022-09-09T22:00:19.407Z,19.74
2022-09-09T22:05:18.711Z,19.78
2022-09-09T22:10:19.004Z,19.33
2022-09-09T22:15:18.294Z,19.36
2022-09-09T22:20:17.589Z,19.56
2022-09-09T22:25:15.923Z,19.62
2022-09-09T22:30:16.065Z,19.99
2022-09-09T22:35:13.367Z,19.56
2022-09-09T22:40:12.679Z,19.73
2022-09-09T22:45:13.097Z,19.39
2022-09-09T22:50:13.237Z,19.55
2022-09-09T22:55:11.344Z,20.31
2022-09-09T23:00:11.661Z,19.96
2022-09-09T23:05:10.005Z,19.65
2022-09-09T23:10:09.326Z,19.77
2022-09-09T23:15:08.730Z,19.73
2022-09-09T23:20:07.855Z,18.99
2022-09-09T23:25:08.315Z,18.92
2022-09-09T23:30:09.411Z,19.56
2022-09-09T23:35:05.711Z,19.66
2022-09-09T23:40:05.080Z,19.77
2022-09-09T23:45:03.204Z,20.43
2022-09-09T23:50:04.550Z,19.46
2022-09-09T23:55:02.896Z,20.84
